Aisha Sarwar — S2CP — position and weather

sailwx.info

Track history (hours):
 
Tides and Currents Weather Stations Pressure Air Temp Water Temp Dewpoint Dewpoint Depression Visibility Wind Speed Wind Dir Waves Ship Positions

Aisha Sarwar

Last reported at 2018-May-24 05:40 UTC. Time now 2018-Jun-18 11:32 UTC.
Position N 01°27' E 103°07'.
Warning: this ship's position is 25 days out of date.

Length 189 m; draft 11.8 m.

Type: Cargo ship. MMSI: 405000130.

Date/timePositionNaut miles runAvg speedWind from/ knotsBaromVisibWave heightAir tempDewpointWater temp
2018-May-24 05:40N 01°27' E 103°07'412.9
2018-May-24 05:21N 01°25' E 103°11'513.0
2018-May-24 04:59N 01°22' E 103°15'612.9
2018-May-24 04:30N 01°18' E 103°20'713.2
2018-May-24 04:00N 01°15' E 103°25'612.4
2018-May-24 03:30N 01°13' E 103°31'611.6
2018-May-24 03:00N 01°12' E 103°37'611.2
2018-May-24 02:30N 01°10' E 103°42'5 8.5
2018-May-24 01:58N 01°10' E 103°47'4 9.4
2018-May-24 01:30N 01°12' E 103°50'5 9.3
2018-May-24 01:00N 01°13' E 103°55'  
Track history (hours):
 
Tides and Currents Weather Stations Pressure Air Temp Water Temp Dewpoint Dewpoint Depression Visibility Wind Speed Wind Dir Waves Ship Positions

Aisha Sarwar

Last reported at 2018-May-24 05:40 UTC. Time now 2018-Jun-18 11:32 UTC.
Position N 01°27' E 103°07'.
Warning: this ship's position is 25 days out of date.

Length 189 m; draft 11.8 m.

Type: Cargo ship. MMSI: 405000130.

Date/timePositionNaut miles runAvg speedWind from/ knotsBaromVisibWave heightAir tempDewpointWater temp
2018-May-24 05:40N 01°27' E 103°07'412.9
2018-May-24 05:21N 01°25' E 103°11'513.0
2018-May-24 04:59N 01°22' E 103°15'612.9
2018-May-24 04:30N 01°18' E 103°20'713.2
2018-May-24 04:00N 01°15' E 103°25'612.4
2018-May-24 03:30N 01°13' E 103°31'611.6
2018-May-24 03:00N 01°12' E 103°37'611.2
2018-May-24 02:30N 01°10' E 103°42'5 8.5
2018-May-24 01:58N 01°10' E 103°47'4 9.4
2018-May-24 01:30N 01°12' E 103°50'5 9.3
2018-May-24 01:00N 01°13' E 103°55'  

Dump ship's entire track history